Flight Track Log - Related Links

Times and Time Zones

All times are in EDT time to prevent confusion due to time zone crossing. See the CSN3104 flight status page for this flight to view local times or setup timezone preferences in your user account.

Time Position Orientation Groundspeed Altitude Reporting Facility
EDT Latitude Longitude Course Direction KTS MPH feet Rate Location/Type
Sat 03:59:00 AM 39.9595 116.5556 190° South  Level Estimated
Sat 04:00:00 AM 39.8390 116.5268 190° South  Level Estimated
Sat 04:01:00 AM 39.7184 116.4981 190° South  Level Estimated
Sat 04:02:00 AM 39.5978 116.4695 190° South  Level Estimated
Sat 04:03:00 AM 39.4772 116.4410 190° South  Level Estimated
Sat 04:04:00 AM 39.3566 116.4126 190° South  Level Estimated
Sat 04:05:00 AM 39.2360 116.3843 190° South  Level Estimated
Sat 04:06:00 AM 39.1154 116.3561 190° South  Level Estimated
Sat 04:07:00 AM 38.9948 116.3280 190° South  Level Estimated
Sat 04:08:00 AM 38.8742 116.2999 190° South  Level Estimated
Sat 04:09:00 AM 38.7536 116.2720 190° South  Level Estimated
Sat 04:10:00 AM 38.6329 116.2442 190° South  Level Estimated
Sat 04:11:00 AM 38.5123 116.2164 190° South  Level Estimated
Sat 04:12:00 AM 38.3916 116.1888 190° South  Level Estimated
Sat 04:13:00 AM 38.2710 116.1612 190° South  Level Estimated
Sat 04:14:00 AM 38.1503 116.1338 190° South  Level Estimated
Sat 04:15:00 AM 38.0296 116.1064 190° South  Level Estimated
Sat 04:16:00 AM 37.9090 116.0791 190° South  Level Estimated
Sat 04:17:00 AM 37.7883 116.0519 190° South  Level Estimated
Sat 04:18:00 AM 37.6676 116.0248 190° South  Level Estimated
Sat 04:19:00 AM 37.5469 115.9978 190° South  Level Estimated
Sat 04:20:00 AM 37.4262 115.9709 190° South  Level Estimated
Sat 04:21:00 AM 37.3055 115.9440 190° South  Level Estimated
Sat 04:22:00 AM 37.1848 115.9173 190° South  Level Estimated
Sat 04:23:00 AM 37.0641 115.8906 190° South  Level Estimated
Sat 04:24:00 AM 36.9434 115.8640 190° South  Level Estimated
Sat 04:25:00 AM 36.8226 115.8375 190° South  Level Estimated
Sat 04:26:00 AM 36.7019 115.8111 190° South  Level Estimated
Sat 04:27:00 AM 36.5812 115.7848 190° South  Level Estimated
Sat 04:28:00 AM 36.4604 115.7585 190° South  Level Estimated
Sat 04:29:00 AM 36.3396 115.7323 190° South  Level Estimated
Sat 04:30:00 AM 36.2189 115.7063 190° South  Level Estimated
Sat 04:31:00 AM 36.0981 115.6802 190° South  Level Estimated
Sat 04:32:00 AM 35.9774 115.6543 190° South  Level Estimated
Sat 04:33:00 AM 35.8566 115.6285 190° South  Level Estimated
Sat 04:34:00 AM 35.7358 115.6027 190° South  Level Estimated
Sat 04:35:00 AM 35.6150 115.5770 190° South  Level Estimated
Sat 04:36:00 AM 35.4942 115.5514 190° South  Level Estimated
Sat 04:37:00 AM 35.3734 115.5258 190° South  Level Estimated
Sat 04:38:00 AM 35.2526 115.5004 190° South  Level Estimated
Sat 04:39:00 AM 35.1318 115.4750 190° South  Level Estimated
Sat 04:40:00 AM 35.0110 115.4497 190° South  Level Estimated
Sat 04:41:00 AM 34.8902 115.4244 190° South  Level Estimated
Sat 04:42:00 AM 34.7694 115.3993 190° South  Level Estimated
Sat 04:43:00 AM 34.6485 115.3742 190° South  Level Estimated
Sat 04:44:00 AM 34.5277 115.3492 190° South  Level Estimated
Sat 04:45:00 AM 34.4069 115.3242 190° South  Level Estimated
Sat 04:46:00 AM 34.2860 115.2993 190° South  Level Estimated
Sat 04:47:00 AM 34.1652 115.2745 190° South  Level Estimated
Sat 04:48:00 AM 34.0443 115.2498 190° South  Level Estimated
Sat 04:49:00 AM 33.9235 115.2252 190° South  Level Estimated
Sat 04:50:00 AM 33.8026 115.2006 190° South  Level Estimated
Sat 04:51:00 AM 33.6817 115.1760 190° South  Level Estimated
Sat 04:52:00 AM 33.5609 115.1516 190° South  Level Estimated
Sat 04:53:00 AM 33.4400 115.1272 190° South  Level Estimated
Sat 04:54:00 AM 33.3191 115.1029 190° South  Level Estimated
Sat 04:55:00 AM 33.1982 115.0786 190° South  Level Estimated
Sat 04:56:00 AM 33.0773 115.0545 190° South  Level Estimated
Sat 04:57:00 AM 32.9564 115.0303 190° South  Level Estimated
Sat 04:58:00 AM 32.8355 115.0063 189° South  Level Estimated
Sat 04:59:00 AM 32.7146 114.9823 189° South  Level Estimated
Sat 05:00:00 AM 32.5937 114.9584 189° South  Level Estimated
Sat 05:01:00 AM 32.4728 114.9345 189° South  Level Estimated
Sat 05:02:00 AM 32.3519 114.9107 189° South  Level Estimated
Sat 05:03:00 AM 32.2310 114.8870 189° South  Level Estimated
Sat 05:04:00 AM 32.1100 114.8633 189° South  Level Estimated
Sat 05:05:00 AM 31.9891 114.8398 189° South  Level Estimated
Sat 05:06:00 AM 31.8682 114.8162 189° South  Level Estimated
Sat 05:07:00 AM 31.7472 114.7927 189° South  Level Estimated
Sat 05:08:00 AM 31.6263 114.7693 189° South  Level Estimated
Sat 05:09:00 AM 31.5053 114.7459 189° South  Level Estimated
Sat 05:10:00 AM 31.3844 114.7226 189° South  Level Estimated
Sat 05:11:00 AM 31.2634 114.6994 189° South  Level Estimated
Sat 05:12:00 AM 31.1425 114.6762 189° South  Level Estimated
Sat 05:13:00 AM 31.0215 114.6531 189° South  Level Estimated
Sat 05:14:00 AM 30.9005 114.6301 189° South  Level Estimated
Sat 05:15:00 AM 30.7795 114.6070 189° South  Level Estimated
Sat 05:16:00 AM 30.6586 114.5841 189° South  Level Estimated
Sat 05:17:00 AM 30.5376 114.5612 189° South  Level Estimated
Sat 05:18:00 AM 30.4166 114.5384 189° South  Level Estimated
Sat 05:19:00 AM 30.2956 114.5156 189° South  Level Estimated
Sat 05:20:00 AM 30.1746 114.4929 189° South  Level Estimated
Sat 05:21:00 AM 30.0536 114.4702 189° South  Level Estimated
Sat 05:22:00 AM 29.9326 114.4476 189° South  Level Estimated
Sat 05:23:00 AM 29.8116 114.4251 189° South  Level Estimated
Sat 05:24:00 AM 29.6906 114.4026 189° South  Level Estimated
Sat 05:25:00 AM 29.5696 114.3801 189° South  Level Estimated
Sat 05:26:00 AM 29.4486 114.3578 189° South  Level Estimated
Sat 05:27:00 AM 29.3275 114.3354 189° South  Level Estimated
Sat 05:28:00 AM 29.2065 114.3131 189° South  Level Estimated
Sat 05:29:00 AM 29.0855 114.2909 189° South  Level Estimated
Sat 05:30:00 AM 28.9645 114.2687 189° South  Level Estimated
Sat 05:31:00 AM 28.8434 114.2466 189° South  Level Estimated
Sat 05:32:00 AM 28.7224 114.2245 189° South  Level Estimated
Sat 05:33:00 AM 28.6013 114.2025 189° South  Level Estimated
Sat 05:34:00 AM 28.4803 114.1806 189° South  Level Estimated
Sat 05:35:00 AM 28.3592 114.1586 189° South  Level Estimated
Sat 05:36:00 AM 28.2382 114.1368 189° South  Level Estimated
Sat 05:37:00 AM 28.1171 114.1150 189° South  Level Estimated
Sat 05:38:00 AM 27.9961 114.0932 189° South  Level Estimated
Sat 05:39:00 AM 27.8750 114.0715 189° South  Level Estimated
Sat 05:40:00 AM 27.7539 114.0498 189° South  Level Estimated
Sat 05:41:00 AM 27.6329 114.0282 189° South  Level Estimated
Sat 05:42:00 AM 27.5118 114.0066 189° South  Level Estimated
Sat 05:43:00 AM 27.3907 113.9850 189° South  Level Estimated
Sat 05:44:00 AM 27.2696 113.9636 189° South  Level Estimated
Sat 05:45:00 AM 27.1486 113.9421 189° South  Level Estimated
Sat 05:46:00 AM 27.0275 113.9207 189° South  Level Estimated
Sat 05:47:00 AM 26.9064 113.8994 189° South  Level Estimated
Sat 05:48:00 AM 26.7853 113.8781 189° South  Level Estimated
Sat 05:49:00 AM 26.6642 113.8568 189° South  Level Estimated
Sat 05:50:00 AM 26.5431 113.8356 189° South  Level Estimated
Sat 05:51:00 AM 26.4220 113.8145 189° South  Level Estimated
Sat 05:52:00 AM 26.3009 113.7933 189° South  Level Estimated
Sat 05:53:00 AM 26.1798 113.7723 189° South  Level Estimated
Sat 05:54:00 AM 26.0586 113.7512 189° South  Level Estimated
Sat 05:55:00 AM 25.9375 113.7302 189° South  Level Estimated
Sat 05:56:00 AM 25.8164 113.7093 189° South  Level Estimated
Sat 05:57:00 AM 25.6953 113.6884 189° South  Level Estimated
Sat 05:58:00 AM 25.5742 113.6675 189° South  Level Estimated
Sat 05:59:00 AM 25.4530 113.6467 189° South  Level Estimated
Sat 06:00:00 AM 25.3319 113.6259 189° South  Level Estimated
Sat 06:01:00 AM 25.2108 113.6052 189° South  Level Estimated
Sat 06:02:00 AM 25.0896 113.5845 189° South  Level Estimated
Sat 06:03:00 AM 24.9685 113.5639 189° South  Level Estimated
Sat 06:04:00 AM 24.8474 113.5433 189° South  Level Estimated
Sat 06:05:00 AM 24.7262 113.5227 189° South  Level Estimated
Sat 06:06:00 AM 24.6051 113.5022 189° South  Level Estimated
Sat 06:07:00 AM 24.4839 113.4817 189° South  Level Estimated
Sat 06:08:00 AM 24.3628 113.4612 189° South  Level Estimated
Sat 06:09:00 AM 24.2416 113.4408 189° South  Level Estimated
Sat 06:10:00 AM 24.1204 113.4204 189° South  Level Estimated
Sat 06:11:00 AM 23.9993 113.4001 189° South  Level Estimated
Sat 06:12:00 AM 23.8781 113.3798 189° South  Level Estimated
Sat 06:13:00 AM 23.7570 113.3595 189° South  Level Estimated
Sat 06:14:00 AM 23.6358 113.3393 189° South  Level Estimated
Sat 06:15:00 AM 23.5146 113.3191 189° South  Level Estimated
Sat 06:16:00 AM 23.3934 113.2990 189° South  Level Estimated
Sat 06:17:00 AM 23.3924 113.2988 188° South  Level Estimated
Sat 06:18:00 AM 23.3924 113.2988 223° Southwest  Level Estimated
Sat 06:19:00 AM 23.3924 113.2988 223° Southwest  Level Estimated
Sat 06:20:00 AM 23.3924 113.2988 223° Southwest  Level Estimated
Sat 06:21:00 AM 23.3924 113.2988 223° Southwest  Level Estimated
Sat 06:22:00 AM 23.3924 113.2988 223° Southwest  Level Estimated
Sat 06:23:00 AM 23.3924 113.2988 223° Southwest  Level Estimated
Sat 06:24:00 AM 23.3924 113.2988 223° Southwest  Level Estimated
Sat 06:25:00 AM 23.3924 113.2988 223° Southwest  Level Estimated
Sat 06:26:00 AM 23.3924 113.2988 223° Southwest  Level Estimated
Sat 06:27:00 AM 23.3924 113.2988 223° Southwest  Level Estimated
Sat 06:28:00 AM 23.3924 113.2988 223° Southwest  Level Estimated
Sat 06:29:00 AM 23.3924 113.2988 223° Southwest  Level Estimated
Sat 06:30:00 AM 23.3924 113.2988 223° Southwest  Level Estimated
Sat 06:31:00 AM 23.3924 113.2988 223° Southwest  Level Estimated
Sat 06:32:00 AM 23.3924 113.2988 223° Southwest  Level Estimated

Login

Don't have an account? Register now (free) for customized features, flight alerts, and more!